Time;durP1;ratioP1;P1;durP2;ratioP2;P2;SDS_P1;SDS_P2;PMS_P1;PMS_P2;Temp;Humidity;BMP_temperature;BMP_pressure;BME280_temperature;BME280_humidity;BME280_pressure;Samples;Min_cycle;Max_cycle;Signal;HPM_P1;HPM_P2
2023/03/27 00:02:07;;;;;;;19.77;8.77;;;1.30;99.90;;;;;;4983940;28;20073;-76
2023/03/27 00:04:34;;;;;;;13.82;9.10;;;1.30;99.90;;;;;;4989498;28;20300;-76
2023/03/27 00:07:00;;;;;;;10.00;8.20;;;1.30;99.90;;;;;;5005319;28;20046;-77
2023/03/27 00:09:27;;;;;;;20.45;8.63;;;1.20;99.90;;;;;;4993258;28;20053;-75
2023/03/27 00:11:55;;;;;;;19.50;8.55;;;1.20;99.90;;;;;;5005574;28;20049;-76
2023/03/27 00:14:22;;;;;;;18.55;8.80;;;1.10;99.90;;;;;;4993836;28;20545;-76
2023/03/27 00:16:49;;;;;;;20.92;9.68;;;1.10;99.90;;;;;;5005563;28;20272;-77
2023/03/27 00:19:17;;;;;;;24.30;8.73;;;1.00;99.90;;;;;;5009660;28;20104;-77
2023/03/27 00:21:44;;;;;;;15.88;8.50;;;1.10;99.90;;;;;;5003449;28;20049;-77
2023/03/27 00:24:11;;;;;;;17.42;8.80;;;1.00;99.90;;;;;;5008763;28;20052;-76
2023/03/27 00:26:39;;;;;;;17.90;8.65;;;1.00;99.90;;;;;;5005170;28;20064;-77
2023/03/27 00:29:06;;;;;;;14.23;8.65;;;1.00;99.90;;;;;;4990900;28;20084;-76
2023/03/27 00:31:34;;;;;;;18.40;8.18;;;0.90;99.90;;;;;;4988138;28;20121;-76
2023/03/27 00:34:02;;;;;;;13.18;8.10;;;0.90;99.90;;;;;;5004988;28;20076;-77
2023/03/27 00:36:28;;;;;;;10.00;8.40;;;0.90;99.90;;;;;;5003493;28;20042;-76
2023/03/27 00:38:55;;;;;;;17.75;8.57;;;0.80;99.90;;;;;;5000735;28;20384;-77
2023/03/27 00:41:22;;;;;;;22.27;8.85;;;0.80;99.90;;;;;;5003866;28;20220;-76
2023/03/27 00:43:52;;;;;;;16.17;8.27;;;0.80;99.90;;;;;;5010270;28;20060;-77
2023/03/27 00:46:39;;;;;;;12.82;8.35;;;0.80;99.90;;;;;;5005373;28;20164;-76
2023/03/27 00:49:09;;;;;;;17.73;7.80;;;0.70;99.90;;;;;;4997965;28;20061;-76
2023/03/27 00:51:39;;;;;;;20.50;8.02;;;0.70;99.90;;;;;;4990552;28;20121;-77
2023/03/27 00:54:08;;;;;;;19.92;7.95;;;0.70;99.90;;;;;;5003313;28;20038;-76
2023/03/27 00:56:37;;;;;;;18.23;7.50;;;0.70;99.90;;;;;;5004883;28;20108;-76
2023/03/27 00:59:11;;;;;;;21.90;8.90;;;0.60;99.90;;;;;;5000731;28;20046;-77
2023/03/27 01:01:38;;;;;;;19.73;8.43;;;0.50;99.90;;;;;;4995175;28;20074;-75
2023/03/27 01:04:07;;;;;;;27.52;8.32;;;0.50;99.90;;;;;;4988595;28;20045;-77
2023/03/27 01:06:35;;;;;;;20.52;7.75;;;0.50;99.90;;;;;;5002504;28;20042;-77
2023/03/27 01:09:03;;;;;;;18.05;7.78;;;0.50;99.90;;;;;;5000366;28;20057;-76
2023/03/27 01:12:00;;;;;;;12.15;6.65;;;0.50;99.90;;;;;;5007443;28;20048;-75
2023/03/27 01:14:49;;;;;;;26.50;7.28;;;0.40;99.90;;;;;;4996905;28;20092;-75
2023/03/27 01:17:29;;;;;;;17.98;6.88;;;0.40;99.90;;;;;;5006214;28;20042;-77
2023/03/27 01:20:20;;;;;;;24.13;6.97;;;0.50;99.90;;;;;;5005924;28;20058;-75
2023/03/27 01:23:32;;;;;;;33.95;7.25;;;0.40;99.90;;;;;;4988098;28;20037;-77
2023/03/27 01:26:50;;;;;;;21.48;7.10;;;0.30;99.90;;;;;;4994990;28;20136;-75
2023/03/27 01:29:24;;;;;;;24.27;6.95;;;0.30;99.90;;;;;;4986756;28;20056;-76
2023/03/27 01:32:29;;;;;;;19.25;8.23;;;0.40;99.90;;;;;;5000263;28;20065;-76
2023/03/27 01:35:06;;;;;;;21.67;6.80;;;0.30;99.90;;;;;;4973724;28;20049;-76
2023/03/27 01:37:55;;;;;;;19.90;6.85;;;0.30;99.90;;;;;;4988388;28;20034;-76
2023/03/27 01:40:32;;;;;;;17.88;6.85;;;0.30;99.90;;;;;;4998821;28;20046;-76
2023/03/27 01:43:05;;;;;;;18.48;6.68;;;0.30;99.90;;;;;;4987478;28;20124;-76
2023/03/27 01:45:54;;;;;;;14.20;5.40;;;0.20;99.90;;;;;;4985209;28;20065;-75
2023/03/27 01:48:42;;;;;;;29.95;7.85;;;0.20;99.90;;;;;;4984619;28;20038;-77
2023/03/27 01:51:17;;;;;;;20.75;6.55;;;0.20;99.90;;;;;;5005202;28;20137;-76
2023/03/27 01:53:54;;;;;;;11.32;6.50;;;0.20;99.90;;;;;;4987486;28;20095;-76
2023/03/27 01:56:26;;;;;;;15.63;6.55;;;0.20;99.90;;;;;;4991306;28;20042;-75
2023/03/27 01:59:02;;;;;;;23.15;7.68;;;0.10;99.90;;;;;;5002213;28;20085;-75
2023/03/27 02:01:44;;;;;;;20.33;7.20;;;0.20;99.90;;;;;;4998880;28;20103;-77
2023/03/27 02:04:22;;;;;;;12.02;6.47;;;0.10;99.90;;;;;;4983783;28;20551;-75
2023/03/27 02:07:02;;;;;;;23.75;6.68;;;0.10;99.90;;;;;;5016572;28;20061;-77
2023/03/27 02:09:34;;;;;;;13.52;6.03;;;0.00;99.90;;;;;;5007866;28;20092;-75
2023/03/27 02:12:10;;;;;;;15.93;6.25;;;0.00;99.90;;;;;;5010042;28;20058;-76
2023/03/27 02:14:49;;;;;;;20.63;6.70;;;0.00;99.90;;;;;;4985177;28;20057;-77
2023/03/27 02:17:18;;;;;;;16.58;7.22;;;0.00;99.90;;;;;;5004427;28;20042;-76
2023/03/27 02:19:55;;;;;;;27.20;7.50;;;0.00;99.90;;;;;;4988794;28;20077;-75
2023/03/27 02:22:22;;;;;;;22.95;6.93;;;0.00;99.90;;;;;;5001804;28;20046;-75
2023/03/27 02:25:24;;;;;;;23.98;7.05;;;0.00;99.90;;;;;;5001622;28;20153;-77
2023/03/27 02:28:15;;;;;;;20.23;6.60;;;0.00;99.90;;;;;;4992619;28;20073;-76
2023/03/27 02:31:11;;;;;;;24.05;7.30;;;0.10;99.90;;;;;;5001775;28;20514;-76
2023/03/27 02:34:06;;;;;;;23.80;8.10;;;0.00;99.90;;;;;;4992919;28;20482;-76
2023/03/27 02:36:34;;;;;;;23.35;6.80;;;0.00;99.90;;;;;;5007444;28;20046;-75
2023/03/27 02:39:14;;;;;;;21.15;7.13;;;0.00;99.90;;;;;;4987087;28;20141;-76
2023/03/27 02:41:47;;;;;;;21.80;7.97;;;0.10;99.90;;;;;;5006877;28;20042;-75
2023/03/27 02:45:09;;;;;;;18.88;6.68;;;0.00;99.90;;;;;;5006584;28;20049;-76
2023/03/27 02:47:41;;;;;;;16.95;6.68;;;0.00;99.90;;;;;;4995960;28;20137;-77
2023/03/27 02:50:29;;;;;;;14.30;7.55;;;0.10;99.90;;;;;;5004397;28;20038;-75
2023/03/27 02:53:04;;;;;;;21.10;7.20;;;0.10;99.90;;;;;;5004461;28;20072;-75
2023/03/27 02:55:37;;;;;;;31.15;7.60;;;0.00;99.90;;;;;;4999840;28;20044;-75
2023/03/27 02:58:13;;;;;;;27.30;7.50;;;0.00;99.90;;;;;;5003817;28;20566;-77
2023/03/27 03:00:57;;;;;;;18.20;6.18;;;0.00;99.90;;;;;;5000026;28;20566;-76
2023/03/27 03:03:52;;;;;;;21.40;7.53;;;-0.10;99.90;;;;;;5002695;28;20092;-74
2023/03/27 03:06:41;;;;;;;22.00;7.00;;;-0.10;99.90;;;;;;5003492;28;20116;-75
2023/03/27 03:09:08;;;;;;;15.05;5.95;;;0.00;99.90;;;;;;4984714;28;20045;-77
2023/03/27 03:11:43;;;;;;;15.40;7.68;;;0.00;99.90;;;;;;4987415;28;20098;-75
2023/03/27 03:14:10;;;;;;;11.43;6.10;;;0.00;99.90;;;;;;4989883;28;20050;-77
2023/03/27 03:16:38;;;;;;;21.83;6.70;;;0.10;99.90;;;;;;4998295;28;20551;-76
2023/03/27 03:19:05;;;;;;;24.88;6.80;;;0.10;99.90;;;;;;4990004;28;20108;-75
2023/03/27 03:21:32;;;;;;;19.33;6.57;;;0.20;99.90;;;;;;5004119;28;20034;-76
2023/03/27 03:24:00;;;;;;;12.80;5.65;;;0.20;99.90;;;;;;4987614;28;20070;-76
2023/03/27 03:26:26;;;;;;;13.85;6.30;;;0.20;99.90;;;;;;5005127;28;20213;-75
2023/03/27 03:28:53;;;;;;;16.85;8.15;;;0.30;99.90;;;;;;5003196;28;20510;-76
2023/03/27 03:31:42;;;;;;;;;;;0.30;99.90;;;;;;4991159;28;20525;-75
2023/03/27 03:34:15;;;;;;;23.25;7.93;;;0.30;99.90;;;;;;5000770;28;19926;-75
2023/03/27 03:36:47;;;;;;;20.55;6.68;;;0.20;99.90;;;;;;5002677;28;20410;-75
2023/03/27 03:39:17;;;;;;;18.40;8.32;;;0.20;99.90;;;;;;4982691;28;20049;-76
2023/03/27 03:41:47;;;;;;;18.33;6.82;;;0.20;99.90;;;;;;5006434;28;20621;-77
2023/03/27 03:44:14;;;;;;;19.55;6.60;;;0.10;99.90;;;;;;5004306;28;20234;-76
2023/03/27 03:46:41;;;;;;;21.75;8.05;;;0.10;99.90;;;;;;5010113;28;20084;-77
2023/03/27 03:49:08;;;;;;;14.20;5.85;;;0.00;99.90;;;;;;5011208;28;20102;-76
2023/03/27 03:51:36;;;;;;;23.52;7.15;;;0.00;99.90;;;;;;5029616;28;20046;-77
2023/03/27 03:54:05;;;;;;;15.05;5.68;;;-0.10;99.90;;;;;;5027983;28;20112;-77
2023/03/27 03:56:33;;;;;;;33.35;6.60;;;-0.10;99.90;;;;;;5010986;28;20036;-77
2023/03/27 03:59:00;;;;;;;18.25;5.90;;;-0.10;99.90;;;;;;5029981;28;20336;-77
2023/03/27 04:01:27;;;;;;;16.83;5.78;;;-0.20;99.90;;;;;;4992299;28;20808;-76
2023/03/27 04:03:59;;;;;;;18.00;6.65;;;-0.20;99.90;;;;;;4983923;28;20046;-75
2023/03/27 04:06:36;;;;;;;23.45;7.32;;;-0.20;99.90;;;;;;5003086;28;20042;-76
2023/03/27 04:09:04;;;;;;;24.92;10.07;;;-0.30;99.90;;;;;;5013734;28;20046;-75
2023/03/27 04:11:53;;;;;;;20.88;8.25;;;-0.30;99.90;;;;;;5000229;28;20069;-76
2023/03/27 04:14:44;;;;;;;21.50;7.85;;;-0.30;99.90;;;;;;5008891;28;20099;-75
2023/03/27 04:17:32;;;;;;;20.83;7.05;;;-0.40;99.90;;;;;;5006781;28;20130;-76
2023/03/27 04:20:01;;;;;;;23.38;7.03;;;-0.50;99.90;;;;;;5004368;28;20057;-78
2023/03/27 04:22:28;;;;;;;19.02;7.47;;;-0.50;99.90;;;;;;5005823;28;20092;-76
2023/03/27 04:24:56;;;;;;;21.98;7.70;;;-0.40;99.90;;;;;;5005955;28;20126;-79
2023/03/27 04:27:22;;;;;;;30.85;7.45;;;-0.40;99.90;;;;;;4983650;28;20062;-78
2023/03/27 04:30:12;;;;;;;21.17;6.63;;;-0.40;99.90;;;;;;5006943;28;20283;-76
2023/03/27 04:32:58;;;;;;;39.00;11.68;;;-0.40;99.90;;;;;;5004483;28;20056;-78
2023/03/27 04:35:38;;;;;;;23.13;7.20;;;-0.40;99.90;;;;;;4999246;28;20129;-79
2023/03/27 04:38:15;;;;;;;28.27;8.88;;;-0.50;99.90;;;;;;4998044;28;20045;-76
2023/03/27 04:40:48;;;;;;;24.63;8.52;;;-0.50;99.90;;;;;;4992851;28;20553;-79
2023/03/27 04:43:16;;;;;;;23.63;7.95;;;-0.50;99.90;;;;;;5000362;28;20103;-76
2023/03/27 04:45:47;;;;;;;37.70;8.18;;;-0.40;99.90;;;;;;4998574;28;20637;-76
2023/03/27 04:48:14;;;;;;;25.95;7.90;;;-0.40;99.90;;;;;;4999422;28;20041;-76
2023/03/27 04:50:49;;;;;;;29.50;8.85;;;-0.30;99.90;;;;;;4997181;28;20038;-77
2023/03/27 04:53:31;;;;;;;13.77;6.00;;;-0.30;99.90;;;;;;5001628;28;20046;-77
2023/03/27 04:56:00;;;;;;;23.75;6.38;;;-0.30;99.90;;;;;;5003638;28;20201;-76
2023/03/27 04:58:27;;;;;;;18.30;6.15;;;-0.20;99.90;;;;;;5002693;28;20143;-77
2023/03/27 05:00:56;;;;;;;29.15;6.72;;;-0.20;99.90;;;;;;4986445;28;20041;-76
2023/03/27 05:03:42;;;;;;;20.60;6.60;;;-0.20;99.90;;;;;;5000696;28;20621;-76
2023/03/27 05:06:15;;;;;;;24.20;7.43;;;-0.20;99.90;;;;;;5005306;28;20045;-77
2023/03/27 05:08:42;;;;;;;24.48;8.35;;;-0.20;99.90;;;;;;4985978;28;20053;-76
2023/03/27 05:11:18;;;;;;;24.27;7.03;;;-0.20;99.90;;;;;;4985028;28;20057;-76
2023/03/27 05:13:45;;;;;;;22.17;6.55;;;-0.30;99.90;;;;;;5002468;28;20046;-77
2023/03/27 05:16:16;;;;;;;18.75;6.15;;;-0.30;99.90;;;;;;5003384;28;20125;-77
2023/03/27 05:18:45;;;;;;;29.23;7.68;;;-0.20;99.90;;;;;;5002366;28;20045;-77
2023/03/27 05:21:12;;;;;;;23.52;7.40;;;-0.30;99.90;;;;;;4991955;28;20048;-76
2023/03/27 05:23:39;;;;;;;24.35;8.48;;;-0.20;99.90;;;;;;4999371;28;20045;-76
2023/03/27 05:26:07;;;;;;;26.90;9.35;;;-0.20;99.90;;;;;;4984015;28;20728;-74
2023/03/27 05:28:51;;;;;;;36.40;9.68;;;-0.20;99.90;;;;;;4995123;28;20057;-76
2023/03/27 05:31:18;;;;;;;25.15;9.20;;;-0.20;99.90;;;;;;4996192;28;20049;-76
2023/03/27 05:33:52;;;;;;;29.63;8.25;;;-0.20;99.90;;;;;;4992140;28;20046;-76
2023/03/27 05:36:21;;;;;;;25.13;8.85;;;-0.20;99.90;;;;;;4994297;28;20045;-74
2023/03/27 05:38:47;;;;;;;31.08;8.77;;;-0.20;99.90;;;;;;4993604;28;20049;-76
2023/03/27 05:41:26;;;;;;;29.50;9.63;;;-0.20;99.90;;;;;;4985483;28;20042;-77
2023/03/27 05:43:53;;;;;;;29.02;9.63;;;-0.20;99.90;;;;;;4994442;28;20466;-76
2023/03/27 05:46:21;;;;;;;27.17;9.35;;;-0.20;99.90;;;;;;4995839;28;20061;-76
2023/03/27 05:48:53;;;;;;;29.75;10.32;;;-0.20;99.90;;;;;;4980915;28;20523;-75
2023/03/27 05:51:21;;;;;;;29.83;11.15;;;-0.10;99.90;;;;;;4995417;28;20297;-76
2023/03/27 05:53:48;;;;;;;34.03;13.00;;;-0.10;99.90;;;;;;4974737;28;20133;-75
2023/03/27 05:56:20;;;;;;;23.40;11.73;;;-0.10;99.90;;;;;;4992357;28;20077;-75
2023/03/27 05:58:53;;;;;;;36.15;11.75;;;-0.10;99.90;;;;;;4984511;28;20077;-76
2023/03/27 06:01:22;;;;;;;34.67;14.38;;;0.00;99.90;;;;;;5001656;28;20033;-76
2023/03/27 06:03:54;;;;;;;33.03;14.85;;;0.00;99.90;;;;;;4977529;28;20076;-77
2023/03/27 06:06:34;;;;;;;36.92;17.08;;;0.10;99.90;;;;;;4993645;28;20042;-76
2023/03/27 06:09:02;;;;;;;38.85;14.80;;;0.10;99.90;;;;;;4972954;28;20045;-76
2023/03/27 06:11:29;;;;;;;34.65;16.77;;;0.20;99.90;;;;;;4991121;28;20045;-77
2023/03/27 06:13:57;;;;;;;35.15;14.30;;;0.20;99.90;;;;;;4995687;28;20064;-76
2023/03/27 06:16:36;;;;;;;36.25;16.15;;;0.30;99.90;;;;;;4993734;28;20045;-77
2023/03/27 06:19:30;;;;;;;37.03;14.68;;;0.30;99.90;;;;;;4990941;28;20053;-76
2023/03/27 06:21:56;;;;;;;36.80;14.02;;;0.30;99.90;;;;;;4977899;28;20506;-76
2023/03/27 06:24:23;;;;;;;39.80;16.27;;;0.30;99.90;;;;;;4989469;28;20219;-76
2023/03/27 06:26:50;;;;;;;52.25;16.38;;;0.30;99.90;;;;;;4994378;28;20046;-76
2023/03/27 06:29:18;;;;;;;32.30;13.00;;;0.30;99.90;;;;;;4979922;28;20675;-76
2023/03/27 06:31:48;;;;;;;34.25;15.68;;;0.40;99.90;;;;;;4994072;28;20046;-75
2023/03/27 06:34:23;;;;;;;;;;;0.50;99.90;;;;;;4998612;28;20500;-77
2023/03/27 06:37:12;;;;;;;27.50;14.55;;;0.60;99.90;;;;;;4992916;28;20379;-76
2023/03/27 06:39:41;;;;;;;36.47;15.73;;;0.60;99.90;;;;;;4996100;28;20069;-76
2023/03/27 06:42:08;;;;;;;37.42;15.43;;;0.60;99.90;;;;;;4974556;28;20141;-76
2023/03/27 06:44:50;;;;;;;41.92;16.20;;;0.50;99.90;;;;;;4979880;28;20076;-76
2023/03/27 06:47:37;;;;;;;46.65;15.70;;;0.40;99.90;;;;;;4994968;28;20052;-77
2023/03/27 06:50:33;;;;;;;;;;;0.50;99.90;;;;;;4986070;28;20046;-76
2023/03/27 06:53:00;;;;;;;35.22;15.68;;;0.60;99.90;;;;;;4997008;28;20582;-76
2023/03/27 06:55:54;;;;;;;39.70;14.85;;;0.70;99.90;;;;;;4995138;28;20042;-76
2023/03/27 06:58:23;;;;;;;33.40;14.65;;;0.60;99.90;;;;;;4994342;28;20065;-76
2023/03/27 07:00:50;;;;;;;34.90;16.65;;;0.70;99.90;;;;;;4994811;28;20136;-75
2023/03/27 07:03:19;;;;;;;42.70;16.75;;;0.70;99.90;;;;;;4997481;28;20042;-76
2023/03/27 07:06:00;;;;;;;37.17;18.45;;;0.70;99.90;;;;;;4995448;28;20716;-76
2023/03/27 07:08:35;;;;;;;30.90;15.30;;;0.70;99.90;;;;;;4997656;28;20069;-76
2023/03/27 07:11:02;;;;;;;31.15;14.73;;;0.80;99.90;;;;;;4998139;28;20044;-77
2023/03/27 07:13:33;;;;;;;37.10;13.38;;;0.90;99.90;;;;;;4999014;28;20035;-77
2023/03/27 07:16:04;;;;;;;29.30;14.48;;;0.90;99.90;;;;;;4997800;28;20056;-78
2023/03/27 07:18:32;;;;;;;40.22;15.27;;;0.90;99.90;;;;;;5000010;28;20034;-78
2023/03/27 07:20:58;;;;;;;28.52;14.88;;;1.00;99.90;;;;;;4997840;28;20137;-76
2023/03/27 07:23:26;;;;;;;26.05;14.07;;;1.00;99.90;;;;;;4995824;28;20062;-76
2023/03/27 07:26:00;;;;;;;34.15;15.75;;;1.00;99.90;;;;;;4996662;28;20510;-76
2023/03/27 07:29:02;;;;;;;33.10;15.10;;;1.00;99.90;;;;;;4982396;28;20062;-77
2023/03/27 07:31:29;;;;;;;28.83;14.57;;;1.10;99.90;;;;;;4988180;28;20066;-77
2023/03/27 07:34:17;;;;;;;33.83;14.45;;;1.20;99.90;;;;;;4986565;28;20037;-77
2023/03/27 07:37:03;;;;;;;23.48;12.25;;;1.20;99.90;;;;;;4997359;28;20445;-78
2023/03/27 07:39:32;;;;;;;25.77;13.35;;;1.30;99.90;;;;;;4981497;28;20042;-77
2023/03/27 07:41:59;;;;;;;26.17;13.88;;;1.40;99.90;;;;;;5002880;28;20057;-76
2023/03/27 07:44:32;;;;;;;27.77;15.10;;;1.60;99.90;;;;;;4980257;28;20398;-77
2023/03/27 07:47:03;;;;;;;25.38;14.13;;;1.60;99.90;;;;;;4996945;28;20053;-77
2023/03/27 07:49:30;;;;;;;28.98;14.05;;;1.50;99.90;;;;;;4996938;28;20076;-77
2023/03/27 07:52:07;;;;;;;25.67;14.55;;;1.60;99.90;;;;;;4993105;28;20046;-75
2023/03/27 07:54:41;;;;;;;29.48;14.00;;;1.70;99.90;;;;;;4982665;28;20096;-75
2023/03/27 07:57:09;;;;;;;24.27;15.30;;;2.00;99.90;;;;;;4995227;28;20061;-76
2023/03/27 07:59:56;;;;;;;25.65;15.18;;;2.00;99.90;;;;;;4983452;28;20049;-76
2023/03/27 08:02:30;;;;;;;31.02;18.02;;;2.10;99.90;;;;;;4998107;28;20507;-75
2023/03/27 08:04:56;;;;;;;28.73;18.33;;;2.00;99.90;;;;;;4998626;28;20530;-76
2023/03/27 08:07:24;;;;;;;23.42;17.55;;;1.90;99.90;;;;;;4990421;28;20049;-76
2023/03/27 08:09:56;;;;;;;30.40;15.45;;;2.10;99.90;;;;;;4976766;28;20045;-76
2023/03/27 08:12:23;;;;;;;24.38;16.17;;;2.10;99.90;;;;;;4991639;28;20038;-76
2023/03/27 08:14:56;;;;;;;18.13;16.30;;;2.30;99.90;;;;;;4994381;28;20042;-76
2023/03/27 08:17:26;;;;;;;29.52;16.55;;;2.60;99.90;;;;;;4987632;28;20508;-75
2023/03/27 08:19:54;;;;;;;18.75;16.48;;;2.80;99.90;;;;;;4977204;28;20038;-77
2023/03/27 08:22:23;;;;;;;23.38;18.50;;;3.00;99.90;;;;;;4992679;28;20046;-76
2023/03/27 08:25:13;;;;;;;24.65;20.90;;;3.30;99.90;;;;;;4994548;28;20526;-76
2023/03/27 08:27:42;;;;;;;24.90;22.60;;;3.60;99.90;;;;;;4981159;28;20076;-77
2023/03/27 08:30:10;;;;;;;26.98;24.52;;;3.80;99.90;;;;;;4994955;28;20049;-77
2023/03/27 08:32:40;;;;;;;28.83;26.42;;;4.00;99.90;;;;;;4994901;28;20038;-76
2023/03/27 08:35:09;;;;;;;24.85;22.38;;;3.80;99.90;;;;;;4995224;28;20089;-77
2023/03/27 08:37:35;;;;;;;25.98;23.52;;;3.60;99.90;;;;;;4981145;28;20044;-77
2023/03/27 08:40:47;;;;;;;22.42;20.05;;;3.50;99.90;;;;;;4993169;28;20138;-76
2023/03/27 08:43:32;;;;;;;29.88;20.63;;;3.30;99.90;;;;;;4995501;28;20046;-77
2023/03/27 08:46:19;;;;;;;29.23;22.40;;;3.40;99.90;;;;;;4993213;28;20104;-75
2023/03/27 08:49:13;;;;;;;29.08;26.02;;;3.60;99.90;;;;;;4978752;28;20140;-77
2023/03/27 08:52:07;;;;;;;29.67;26.33;;;3.60;99.90;;;;;;4976636;28;20081;-76
2023/03/27 08:54:38;;;;;;;27.95;25.27;;;3.50;99.90;;;;;;4978389;28;20096;-76
2023/03/27 08:57:20;;;;;;;27.00;24.27;;;3.60;99.90;;;;;;4976812;28;20065;-77
2023/03/27 08:59:56;;;;;;;28.55;26.50;;;3.60;99.90;;;;;;4997375;28;20085;-76
2023/03/27 09:02:44;;;;;;;31.73;28.75;;;3.60;99.90;;;;;;4976176;28;20597;-76
2023/03/27 09:05:18;;;;;;;30.48;27.67;;;3.50;99.90;;;;;;4977242;28;20124;-77
2023/03/27 09:08:06;;;;;;;27.60;25.48;;;3.60;99.90;;;;;;4999632;28;20108;-76
2023/03/27 09:10:36;;;;;;;32.17;29.45;;;4.00;99.90;;;;;;4976196;28;20042;-76
2023/03/27 09:13:50;;;;;;;31.88;28.42;;;4.10;99.90;;;;;;4996867;28;20067;-76
2023/03/27 09:16:30;;;;;;;35.53;32.72;;;4.30;99.90;;;;;;4991903;28;20604;-76
2023/03/27 09:19:21;;;;;;;35.10;32.08;;;4.50;99.90;;;;;;4980352;28;20538;-75
2023/03/27 09:21:51;;;;;;;34.13;31.02;;;4.50;99.90;;;;;;4994531;28;20050;-77
2023/03/27 09:24:42;;;;;;;34.90;31.77;;;4.50;99.90;;;;;;4996929;28;20522;-77
2023/03/27 09:27:31;;;;;;;34.60;32.30;;;4.40;99.90;;;;;;4991697;28;20683;-76
2023/03/27 09:30:09;;;;;;;;;;;4.40;99.90;;;;;;4978733;28;20341;-75
2023/03/27 09:32:57;;;;;;;35.60;32.47;;;4.70;99.90;;;;;;4996623;28;19929;-78
2023/03/27 09:35:24;;;;;;;38.20;34.78;;;4.90;99.90;;;;;;4993676;28;20129;-75
2023/03/27 09:37:57;;;;;;;35.63;33.55;;;4.90;99.90;;;;;;4996730;28;20083;-76
2023/03/27 09:40:44;;;;;;;31.45;29.08;;;4.60;99.90;;;;;;4996425;28;20092;-77
2023/03/27 09:43:21;;;;;;;31.27;29.00;;;4.30;99.90;;;;;;4976126;28;20050;-76
2023/03/27 09:45:52;;;;;;;29.75;27.27;;;4.20;99.90;;;;;;4983302;28;20060;-76
2023/03/27 09:48:45;;;;;;;25.90;24.05;;;4.00;99.90;;;;;;4991717;28;20076;-75
2023/03/27 09:51:53;;;;;;;;;;;3.90;99.90;;;;;;4993627;28;20050;-78
2023/03/27 09:54:54;;;;;;;33.10;30.55;;;4.00;99.90;;;;;;4957677;28;20201;-77
2023/03/27 09:57:34;;;;;;;31.25;28.95;;;4.20;99.90;;;;;;4930186;28;20042;-76
2023/03/27 10:00:08;;;;;;;35.05;32.75;;;4.30;99.90;;;;;;4983440;28;20089;-76
2023/03/27 10:02:40;;;;;;;30.70;28.27;;;4.00;99.90;;;;;;4998088;28;20116;-79
2023/03/27 10:05:18;;;;;;;23.95;21.80;;;3.60;99.90;;;;;;4979569;28;20050;-77
2023/03/27 10:07:50;;;;;;;31.33;21.90;;;3.10;99.90;;;;;;4983243;28;20104;-78
2023/03/27 10:10:44;;;;;;;24.10;22.15;;;2.90;99.90;;;;;;4986692;28;20049;-75
2023/03/27 10:13:47;;;;;;;23.10;21.23;;;3.00;99.90;;;;;;4995455;28;20038;-78
2023/03/27 10:16:20;;;;;;;27.38;25.02;;;3.40;99.90;;;;;;4975657;28;20034;-79
2023/03/27 10:18:59;;;;;;;27.33;25.50;;;3.90;99.90;;;;;;4993632;28;20045;-78
2023/03/27 10:21:34;;;;;;;26.60;24.70;;;4.40;99.90;;;;;;4986959;28;20467;-78
2023/03/27 10:24:20;;;;;;;29.73;27.92;;;4.60;99.90;;;;;;4977341;28;20107;-79
2023/03/27 10:27:10;;;;;;;34.15;31.15;;;4.70;99.90;;;;;;4995766;28;20041;-79
2023/03/27 10:29:43;;;;;;;31.70;29.80;;;4.50;99.90;;;;;;4987484;28;20050;-77
2023/03/27 10:32:13;;;;;;;32.95;30.83;;;5.00;99.90;;;;;;4979995;28;20056;-78
2023/03/27 10:34:57;;;;;;;35.33;33.33;;;5.60;99.90;;;;;;4998598;28;20415;-81
2023/03/27 10:37:40;;;;;;;41.85;39.65;;;6.10;99.90;;;;;;4996867;28;20072;-79
2023/03/27 10:40:38;;;;;;;47.90;44.83;;;5.80;99.90;;;;;;4980599;28;20412;-77
2023/03/27 10:43:29;;;;;;;43.35;40.65;;;5.50;99.90;;;;;;4996142;28;20046;-80
2023/03/27 10:46:05;;;;;;;38.95;36.17;;;5.30;99.90;;;;;;5000147;28;20042;-78
2023/03/27 10:48:46;;;;;;;42.33;39.42;;;5.30;99.90;;;;;;4997389;28;20073;-79
2023/03/27 10:51:47;;;;;;;41.88;39.15;;;5.40;99.90;;;;;;4995796;28;20042;-78
2023/03/27 10:54:43;;;;;;;46.28;43.63;;;5.70;99.90;;;;;;4981148;28;20041;-77
2023/03/27 10:57:23;;;;;;;42.15;39.75;;;5.60;99.90;;;;;;4990163;28;20530;-79
2023/03/27 11:00:12;;;;;;;44.38;41.58;;;5.60;99.90;;;;;;4986428;28;20106;-77
2023/03/27 11:02:56;;;;;;;38.13;35.88;;;5.70;99.90;;;;;;4999706;28;20048;-79
2023/03/27 11:05:29;;;;;;;38.17;35.35;;;6.10;99.90;;;;;;4998910;28;20100;-79
2023/03/27 11:08:22;;;;;;;39.10;36.70;;;6.30;99.90;;;;;;4979087;28;20052;-77
2023/03/27 11:10:49;;;;;;;40.45;38.38;;;6.30;99.90;;;;;;4982756;28;20073;-77
2023/03/27 11:13:32;;;;;;;33.95;31.90;;;5.90;99.90;;;;;;4979948;28;20034;-78
2023/03/27 11:16:38;;;;;;;40.35;38.35;;;5.70;99.90;;;;;;4994062;28;20431;-77
2023/03/27 11:19:33;;;;;;;42.45;39.42;;;5.90;99.90;;;;;;4990626;28;20052;-77
2023/03/27 11:22:44;;;;;;;37.72;35.33;;;6.10;99.90;;;;;;4945662;28;20043;-78
2023/03/27 11:25:38;;;;;;;41.60;38.78;;;6.10;99.90;;;;;;4990740;28;20054;-77
2023/03/27 11:28:18;;;;;;;40.80;38.25;;;6.10;99.90;;;;;;4995247;28;20407;-76
2023/03/27 11:30:50;;;;;;;37.85;35.45;;;6.10;99.90;;;;;;4995870;28;20062;-79
2023/03/27 11:33:35;;;;;;;37.05;34.85;;;6.60;99.90;;;;;;4996137;28;20270;-77
2023/03/27 11:36:28;;;;;;;38.25;35.45;;;6.80;99.90;;;;;;4994381;28;20062;-78
2023/03/27 11:39:35;;;;;;;37.97;35.63;;;6.50;99.90;;;;;;4998026;28;20096;-77
2023/03/27 11:42:15;;;;;;;35.53;33.30;;;6.30;99.90;;;;;;4992067;28;20529;-77
2023/03/27 11:44:42;;;;;;;33.80;31.70;;;5.90;99.90;;;;;;4994790;28;20069;-77
2023/03/27 11:47:25;;;;;;;36.65;34.03;;;5.90;99.90;;;;;;4997298;28;20050;-78
2023/03/27 11:50:06;;;;;;;38.60;35.88;;;5.80;99.90;;;;;;4997316;28;20038;-77
2023/03/27 11:53:08;;;;;;;38.65;36.13;;;5.60;99.90;;;;;;5000877;28;20042;-78
2023/03/27 11:56:15;;;;;;;38.25;35.78;;;5.50;99.90;;;;;;4960871;28;20062;-78
2023/03/27 11:59:11;;;;;;;39.33;36.83;;;5.40;99.90;;;;;;4996773;28;20133;-79
2023/03/27 12:01:54;;;;;;;34.90;32.90;;;5.20;99.90;;;;;;4993606;28;20038;-77
2023/03/27 12:04:56;;;;;;;37.75;34.90;;;4.70;99.90;;;;;;4995177;28;20045;-77
2023/03/27 12:07:51;;;;;;;40.70;37.97;;;4.80;99.90;;;;;;4997499;28;20042;-77
2023/03/27 12:10:25;;;;;;;31.23;28.85;;;5.20;99.90;;;;;;4983004;28;20140;-78
2023/03/27 12:13:30;;;;;;;32.45;30.27;;;5.60;99.90;;;;;;4992125;28;20046;-79
2023/03/27 12:16:59;;;;;;;33.05;30.13;;;5.40;99.90;;;;;;4979496;28;20443;-77
2023/03/27 12:20:10;;;;;;;32.88;30.67;;;5.20;99.90;;;;;;4984625;28;20042;-77
2023/03/27 12:22:47;;;;;;;17.67;16.52;;;4.20;99.90;;;;;;4995176;28;20104;-77
2023/03/27 12:26:15;;;;;;;13.55;12.30;;;3.30;99.90;;;;;;4990733;28;20045;-77
2023/03/27 12:29:23;;;;;;;9.27;8.40;;;2.90;99.90;;;;;;4993222;28;20084;-78
2023/03/27 12:32:20;;;;;;;13.38;6.50;;;2.80;99.90;;;;;;4987022;28;20050;-77
2023/03/27 12:34:58;;;;;;;10.38;6.82;;;3.20;99.90;;;;;;4978745;28;20556;-78
2023/03/27 12:38:00;;;;;;;11.52;8.40;;;3.50;99.90;;;;;;4995564;28;20402;-77
2023/03/27 12:40:40;;;;;;;13.43;12.25;;;3.40;99.90;;;;;;4993218;28;20045;-77
2023/03/27 12:43:20;;;;;;;14.20;10.15;;;3.50;99.90;;;;;;4993605;28;20136;-77
2023/03/27 12:46:22;;;;;;;14.02;9.70;;;4.10;99.90;;;;;;4996150;28;20141;-77
2023/03/27 12:48:58;;;;;;;15.68;14.25;;;4.60;99.90;;;;;;4978929;28;20058;-77
2023/03/27 12:51:53;;;;;;;18.25;16.42;;;5.00;99.90;;;;;;4975686;28;20479;-77
2023/03/27 12:55:05;;;;;;;21.50;19.65;;;5.20;99.90;;;;;;4984076;28;20046;-77
2023/03/27 12:57:56;;;;;;;23.13;21.30;;;5.30;99.90;;;;;;4992815;28;20054;-77
2023/03/27 13:00:59;;;;;;;26.13;24.42;;;5.60;99.90;;;;;;4974907;28;20472;-77
2023/03/27 13:04:23;;;;;;;30.67;28.45;;;5.70;99.90;;;;;;4983953;28;20046;-76
2023/03/27 13:06:56;;;;;;;33.70;30.63;;;6.00;99.90;;;;;;4979150;28;20034;-78
2023/03/27 13:09:52;;;;;;;31.63;29.85;;;5.80;99.90;;;;;;4997002;28;20442;-78
2023/03/27 13:12:37;;;;;;;37.10;34.58;;;5.80;99.90;;;;;;4991408;28;20137;-76
2023/03/27 13:15:30;;;;;;;36.20;33.90;;;5.70;99.90;;;;;;4995384;28;20042;-77
2023/03/27 13:18:24;;;;;;;35.20;33.05;;;6.00;99.90;;;;;;4992651;28;20050;-76
2023/03/27 13:21:06;;;;;;;38.65;36.30;;;6.00;99.90;;;;;;4994479;28;20132;-78
2023/03/27 13:24:02;;;;;;;34.28;32.08;;;6.00;99.90;;;;;;4979737;28;20486;-76
2023/03/27 13:26:43;;;;;;;39.00;36.90;;;6.00;99.90;;;;;;4992078;28;20463;-79
2023/03/27 13:29:29;;;;;;;39.95;37.25;;;6.30;99.90;;;;;;4978483;28;20384;-77
2023/03/27 13:32:21;;;;;;;37.00;34.80;;;6.70;99.90;;;;;;4971073;28;20080;-78
2023/03/27 13:35:25;;;;;;;34.65;32.65;;;7.00;99.90;;;;;;4992859;28;20050;-76
2023/03/27 13:37:57;;;;;;;40.88;38.15;;;7.10;99.90;;;;;;4993387;28;20054;-78
2023/03/27 13:40:35;;;;;;;35.83;33.53;;;6.50;99.90;;;;;;4994604;28;20380;-78
2023/03/27 13:43:25;;;;;;;29.63;28.02;;;5.80;99.90;;;;;;4993708;28;20077;-77